• Join FlightAware (Why Join?)
  • Login
  • US Flag 
03:09AM EDT


 

Airport Tracker/Info


-or-


 

Live Flight TrackerFlight Track Log ✈ UAL289 ✈ 25-Apr-2013 ✈ KLGA - KORD

Flight Track Log - Related Links

Times and Time Zones

All times are in EDT time to prevent confusion due to time zone crossing. See the UAL289 flight status page for this flight to view local times or setup timezone preferences in your user account.

Time Position Orientation Groundspeed Altitude Reporting Facility
EDT Latitude Longitude Course Direction KTS MPH feet Rate Location/Type
02:36PM 40.8167 -73.8500 304° West 176 203 1,900  Level New York TRACON
02:37PM 40.8667 -73.8167 27° Northeast 235 270 5,000 3,060 Climbing New York TRACON
02:38PM 40.9194 -74.2054 304° West  Level FlightAware Approximate
02:38PM 40.9333 -73.8167 360° North 264 304 8,100  Level New York TRACON
02:39PM 40.9755 -74.3177 304° West  Level FlightAware Approximate
02:39PM 40.9833 -73.9000 308° West 272 313 11,100  Level New York TRACON
02:40PM 41.0257 -74.4349 299° West  Level FlightAware Approximate
02:40PM 41.0500 -73.9833 317° Northwest 326 375 13,200  Level New York TRACON
02:41PM 41.0691 -74.5548 304° West  Level FlightAware Approximate
02:41PM 41.0667 -74.1000 281° West 325 374 15,700  Level New York TRACON
02:43PM 41.0942 -74.3006 280° West 337 388 16,000 60 Climbing New York Center
02:44PM 41.1078 -74.4061 280° West 332 382 16,000  Level New York Center
02:45PM 41.1203 -74.5389 277° West 332 382 16,000  Level New York Center
02:46PM 41.1333 -74.6469 279° West 332 382 16,000 720 Level New York Center
02:47PM 41.1689 -74.7703 291° West 332 382 17,500 1,680 Climbing New York Center
02:48PM 41.2133 -74.8694 301° West 332 382 19,500 1,920 Climbing New York Center
02:49PM 41.2614 -74.9856 299° West 352 405 21,400 1,860 Climbing New York Center
02:50PM 41.3153 -75.1050 301° West 365 420 23,200 1,680 Climbing New York Center
02:51PM 41.3669 -75.2325 298° West 379 436 24,900 1,620 Climbing New York Center
02:52PM 41.4222 -75.3608 300° West 391 450 26,500 1,500 Climbing New York Center
02:53PM 41.4775 -75.4947 299° West 402 463 28,000 1,500 Climbing New York Center
02:54PM 41.5178 -75.6333 291° West 408 470 29,600 1,380 Climbing New York Center
02:55PM 41.5578 -75.7719 291° West 408 470 30,800 1,260 Climbing New York Center
02:56PM 41.5994 -75.9167 291° West 408 470 32,100 1,320 Climbing New York Center
02:57PM 41.6392 -76.0558 291° West 408 470 33,500 1,380 Climbing New York Center
02:58PM 41.6806 -76.2006 291° West 413 475 35,000 1,200 Climbing New York Center
02:59PM 41.7178 -76.3397 290° West 413 475 36,000 240 Climbing New York Center
03:01PM 41.8122 -76.6769 291° West 408 470 36,000  Level Cleveland Center
03:02PM 41.8525 -76.8194 291° West 403 464 36,000  Level Cleveland Center
03:03PM 41.8903 -76.9594 290° West 403 464 36,000  Level Cleveland Center
03:04PM 41.9281 -77.1025 290° West 403 464 36,000  Level Cleveland Center
03:05PM 41.9658 -77.2458 290° West 403 464 36,000  Level Cleveland Center
03:06PM 42.0053 -77.3864 291° West 403 464 36,000  Level Cleveland Center
03:07PM 42.0469 -77.5408 290° West 403 464 36,000  Level Cleveland Center
03:08PM 42.0839 -77.6844 289° West 403 464 36,000  Level Cleveland Center
03:09PM 42.1231 -77.8283 290° West 403 464 36,000  Level Cleveland Center
03:11PM 42.1983 -78.1139 290° West 403 464 36,100  Climbing Cleveland Center
03:12PM 42.2347 -78.2583 289° West 403 464 36,000 -60 Descending Cleveland Center
03:13PM 42.2708 -78.4000 289° West 403 464 36,000  Level Cleveland Center
03:14PM 42.3086 -78.5392 290° West 403 464 36,000  Level Cleveland Center
03:15PM 42.3444 -78.6842 289° West 403 464 36,000  Level Cleveland Center
03:16PM 42.3803 -78.8292 289° West 403 464 36,000  Level Cleveland Center
03:17PM 42.4156 -78.9717 289° West 403 464 36,000  Level Cleveland Center
03:18PM 42.4508 -79.1142 289° West 403 464 36,000  Level Cleveland Center
03:19PM 42.4794 -79.2292 289° West 403 464 36,000  Level Cleveland Center
03:20PM 42.4981 -79.4117 278° West 398 458 36,000  Level Cleveland Center
03:21PM 42.5056 -79.5553 274° West 398 458 36,000  Level Cleveland Center
03:22PM 42.5131 -79.7044 274° West 393 452 36,000  Level Cleveland Center
03:23PM 42.5225 -79.8508 275° West 393 452 36,000  Level Cleveland Center
03:24PM 42.5233 -79.9944 270° West 393 452 36,000  Level Cleveland Center
03:25PM 42.5303 -80.1436 274° West 393 452 36,000  Level Cleveland Center
03:26PM 42.5392 -80.2931 275° West 400 460 36,100  Climbing Cleveland Center
03:27PM 42.5414 -80.4422 271° West 409 471 36,000 -60 Descending Cleveland Center
03:28PM 42.5497 -80.5889 274° West 401 461 36,000  Level Cleveland Center
03:29PM 42.5558 -80.7411 273° West 401 461 36,000  Level Cleveland Center
03:30PM 42.5597 -80.8906 272° West 401 461 36,000  Level Cleveland Center
03:31PM 42.5656 -81.0428 273° West 406 467 36,000  Level Cleveland Center
03:32PM 42.5711 -81.1950 273° West 401 461 36,100  Climbing Cleveland Center
03:33PM 42.5764 -81.3472 273° West 406 467 36,000 -60 Descending Cleveland Center
03:34PM 42.5881 -81.4744 277° West 399 459 36,000  Level Cleveland Center
03:35PM 42.6139 -81.6214 283° West 394 453 36,000  Level Cleveland Center
03:36PM 42.6375 -81.7628 283° West 394 453 36,000  Level Cleveland Center
03:37PM 42.6611 -81.9072 283° West 394 453 36,000  Level Cleveland Center
03:38PM 42.6864 -82.0547 283° West 394 453 36,000  Level Cleveland Center
03:39PM 42.7136 -82.1994 284° West 394 453 36,000  Level Cleveland Center
03:40PM 42.7322 -82.3442 280° West 394 453 36,000  Level Cleveland Center
03:41PM 42.7425 -82.4914 275° West 394 453 36,000  Level Cleveland Center
03:42PM 42.7544 -82.6417 276° West 394 453 36,000  Level Cleveland Center
03:43PM 42.7661 -82.7919 276° West 394 453 36,000  Level Cleveland Center
03:44PM 42.7781 -82.9367 276° West 394 453 36,000  Level Cleveland Center
03:46PM 42.7964 -83.2372 275° West 399 459 36,000  Level Cleveland Center
03:47PM 42.8056 -83.3850 275° West 399 459 36,000  Level Cleveland Center
03:48PM 42.8164 -83.5297 276° West 399 459 36,000 -540 Level Cleveland Center
03:49PM 42.8286 -83.6975 276° West 406 467 35,000 -1,020 Descending Cleveland Center
03:50PM 42.8372 -83.8450 275° West 406 467 34,000 -1,020 Descending Cleveland Center
03:51PM 42.8456 -83.9900 275° West 401 461 33,000 -960 Descending Cleveland Center
03:52PM 42.8553 -84.1464 275° West 401 461 32,100 -540 Descending Cleveland Center
03:53PM 42.8650 -84.3000 275° West 407 468 32,000 -60 Descending Cleveland Center
03:54PM 42.8753 -84.4367 276° West 407 468 32,000  Level Cleveland Center
03:55PM 42.8808 -84.5253 275° West 413 475 32,000  Level Chicago Center
03:56PM 42.8739 -84.6794 267° West 410 472 32,000  Level Chicago Center
03:57PM 42.8572 -84.8317 262° West 407 468 32,000  Level Chicago Center
03:58PM 42.8422 -84.9861 263° West 410 472 32,000  Level Chicago Center
03:59PM 42.8222 -85.1683 262° West 407 468 32,000  Level Chicago Center
04:00PM 42.8058 -85.3222 262° West 411 473 32,000  Level Chicago Center
04:01PM 42.7881 -85.4753 261° West 409 471 32,000 -180 Level Chicago Center
04:02PM 42.7636 -85.6275 258° West 410 472 31,700 -1,320 Descending Chicago Center
04:03PM 42.7361 -85.7786 256° West 409 471 29,300 -2,880 Descending Chicago Center
04:04PM 42.7086 -85.9286 256° West 408 470 25,800 -4,080 Descending Chicago Center
04:05PM 42.6819 -86.0758 256° West 400 460 20,800 -2,820 Descending Chicago Center
04:06PM 42.6508 -86.2408 256° West 377 434 20,000 -420 Descending Chicago Center
04:07PM 42.6267 -86.3689 256° West 354 407 20,000 -300 Level Chicago Center
04:08PM 42.6019 -86.4997 256° West 356 410 19,500 -1,080 Descending Chicago Center
04:09PM 42.5778 -86.6283 256° West 354 407 17,800 -1,260 Descending Chicago Center
04:10PM 42.5539 -86.7556 256° West 348 400 17,000 -1,140 Descending Chicago Center
04:11PM 42.5192 -86.8764 249° West 346 398 15,500 -1,800 Descending Chicago Center
04:12PM 42.4811 -87.0192 250° West 339 390 13,400 -2,460 Descending Chicago Center
04:13PM 42.4486 -87.1314 249° West 326 375 10,500 -1,920 Descending Chicago Center
04:14PM 42.4222 -87.2306 250° West 284 327 9,500 -1,260 Descending Chicago Center
04:15PM 42.3958 -87.3233 249° West 265 305 8,000 -1,560 Descending Chicago Center
04:16PM 42.3306 -87.3933 218° Southwest 270 311 6,300 -1,020 Descending Chicago Center
04:17PM 42.2672 -87.4519 214° Southwest 268 308 5,900 -600 Descending Chicago Center
04:18PM 42.2083 -87.5081 215° Southwest 262 302 5,100 -600 Descending Chicago Center
04:19PM 42.1503 -87.5633 215° Southwest 256 295 4,700 -480 Descending Chicago Center
04:20PM 42.1167 -87.6000 219° Southwest 250 288 4,400 -420 Descending Chicago TRACON
04:21PM 42.0667 -87.6500 217° Southwest 211 243 4,100 -300 Descending Chicago TRACON
04:22PM 42.0333 -87.7167 236° Southwest 180 207 3,900 -240 Descending Chicago TRACON